Time;durP1;ratioP1;P1;durP2;ratioP2;P2;SDS_P1;SDS_P2;PMS_P1;PMS_P2;Temp;Humidity;BMP_temperature;BMP_pressure;BME280_temperature;BME280_humidity;BME280_pressure;Samples;Min_cycle;Max_cycle;Signal;HPM_P1;HPM_P2
2021/12/02 00:02:20;;;;;;;0.47;0.47;;;9.80;99.90;;;;;;5079926;28;20201;-86
2021/12/02 00:04:49;;;;;;;0.30;0.30;;;9.80;99.90;;;;;;5091461;28;20216;-86
2021/12/02 00:07:17;;;;;;;0.30;0.30;;;9.80;99.90;;;;;;5071604;28;20292;-86
2021/12/02 00:09:48;;;;;;;0.40;0.40;;;9.80;99.90;;;;;;5071146;28;20251;-86
2021/12/02 00:12:16;;;;;;;0.40;0.40;;;9.80;99.90;;;;;;5071634;28;20221;-86
2021/12/02 00:14:46;;;;;;;0.40;0.40;;;9.80;99.90;;;;;;5073525;28;20197;-86
2021/12/02 00:17:19;;;;;;;0.55;0.55;;;9.80;99.90;;;;;;5090612;28;20236;-86
2021/12/02 00:22:42;;;;;;;0.45;0.45;;;9.80;99.90;;;;;;5072441;28;20287;-86
2021/12/02 00:25:12;;;;;;;0.55;0.52;;;9.80;99.90;;;;;;5073100;28;20236;-86
2021/12/02 00:27:44;;;;;;;2.92;0.85;;;9.80;99.90;;;;;;5077446;28;20290;-86
2021/12/02 00:30:13;;;;;;;0.47;0.47;;;9.70;99.90;;;;;;5087282;28;20201;-86
2021/12/02 00:32:43;;;;;;;0.55;0.55;;;9.70;99.90;;;;;;5071781;28;20197;-86
2021/12/02 00:35:12;;;;;;;0.43;0.43;;;9.70;99.90;;;;;;5081409;28;20197;-86
2021/12/02 00:37:41;;;;;;;0.50;0.50;;;9.70;99.90;;;;;;5072889;28;20247;-85
2021/12/02 00:40:13;;;;;;;0.35;0.35;;;9.70;99.90;;;;;;5070835;28;20198;-86
2021/12/02 00:42:42;;;;;;;0.98;0.43;;;9.60;99.90;;;;;;5084409;28;20200;-85
2021/12/02 00:45:10;;;;;;;1.00;0.75;;;9.70;99.90;;;;;;5085689;28;20244;-85
2021/12/02 00:47:39;;;;;;;1.13;0.80;;;9.70;99.90;;;;;;5073573;28;20329;-85
2021/12/02 00:50:08;;;;;;;0.45;0.43;;;9.80;99.90;;;;;;5088487;28;20204;-86
2021/12/02 00:52:38;;;;;;;0.43;0.43;;;9.80;99.90;;;;;;5092654;28;20276;-85
2021/12/02 00:55:07;;;;;;;0.30;0.30;;;9.80;99.90;;;;;;5078194;28;20225;-85
2021/12/02 00:57:40;;;;;;;0.50;0.50;;;9.70;99.90;;;;;;5081098;28;20299;-85
2021/12/02 01:00:10;;;;;;;0.63;0.63;;;9.80;99.90;;;;;;5082252;28;20193;-85
2021/12/02 01:02:39;;;;;;;0.17;0.17;;;9.80;99.90;;;;;;5091064;28;20208;-85
2021/12/02 01:05:08;;;;;;;0.40;0.40;;;9.80;99.90;;;;;;5076094;28;20221;-85
2021/12/02 01:07:37;;;;;;;0.25;0.25;;;9.80;99.90;;;;;;5094193;28;20243;-85
2021/12/02 01:10:06;;;;;;;0.40;0.40;;;9.80;99.90;;;;;;5094848;28;20299;-85
2021/12/02 01:12:37;;;;;;;0.50;0.50;;;9.90;99.90;;;;;;5082207;28;20289;-85
2021/12/02 01:15:07;;;;;;;0.30;0.30;;;9.80;99.90;;;;;;5086923;28;20300;-85
2021/12/02 01:17:35;;;;;;;0.20;0.20;;;9.90;99.90;;;;;;5094100;28;20224;-86
2021/12/02 01:20:04;;;;;;;0.38;0.38;;;9.90;99.90;;;;;;5074368;28;20240;-86
2021/12/02 01:22:37;;;;;;;0.75;0.55;;;9.90;99.90;;;;;;5075376;28;20280;-86
2021/12/02 01:25:07;;;;;;;0.20;0.20;;;9.80;99.90;;;;;;5074854;28;20227;-85
2021/12/02 01:27:39;;;;;;;0.13;0.13;;;9.80;99.90;;;;;;5074333;28;20217;-86
2021/12/02 01:30:08;;;;;;;0.40;0.40;;;9.80;99.90;;;;;;5094818;28;20288;-86
2021/12/02 01:32:39;;;;;;;0.93;0.50;;;9.90;99.90;;;;;;5094573;28;20232;-86
2021/12/02 01:35:09;;;;;;;0.30;0.30;;;9.80;99.90;;;;;;5093102;28;20220;-86
2021/12/02 01:37:37;;;;;;;0.30;0.30;;;9.90;99.90;;;;;;5076014;28;20251;-86
2021/12/02 01:40:06;;;;;;;0.35;0.35;;;9.90;99.90;;;;;;5090551;28;20262;-86
2021/12/02 01:42:41;;;;;;;0.52;0.52;;;9.90;99.90;;;;;;5093474;28;20284;-86
2021/12/02 01:45:15;;;;;;;0.28;0.28;;;9.90;99.90;;;;;;5095117;28;20234;-86
2021/12/02 01:47:51;;;;;;;1.30;0.70;;;9.90;99.90;;;;;;5093740;28;20323;-86
2021/12/02 01:50:22;;;;;;;0.43;0.43;;;9.80;99.90;;;;;;5074578;28;20208;-86
2021/12/02 01:52:56;;;;;;;0.45;0.45;;;9.80;99.90;;;;;;5074776;28;20205;-87
2021/12/02 01:55:25;;;;;;;0.40;0.40;;;9.80;99.90;;;;;;5089169;28;20192;-86
2021/12/02 01:58:00;;;;;;;0.40;0.40;;;9.90;99.90;;;;;;5082606;28;20292;-86
2021/12/02 02:00:32;;;;;;;0.55;0.55;;;9.90;99.90;;;;;;5093534;28;20233;-86
2021/12/02 02:03:02;;;;;;;0.30;0.30;;;9.90;99.90;;;;;;5074685;28;20205;-86
2021/12/02 02:05:31;;;;;;;0.70;0.70;;;9.90;99.90;;;;;;5074265;28;20221;-86
2021/12/02 02:08:02;;;;;;;0.52;0.52;;;9.90;99.90;;;;;;5076076;28;20244;-86
2021/12/02 02:10:33;;;;;;;0.73;0.57;;;9.80;99.90;;;;;;5086967;28;20376;-86
2021/12/02 02:13:06;;;;;;;0.30;0.30;;;9.90;99.90;;;;;;5074167;28;20229;-87
2021/12/02 02:15:35;;;;;;;0.30;0.30;;;9.90;99.90;;;;;;5091372;28;20257;-87
2021/12/02 02:18:08;;;;;;;0.57;0.55;;;9.90;99.90;;;;;;5091287;28;20216;-86
2021/12/02 02:20:42;;;;;;;0.35;0.35;;;9.90;99.90;;;;;;5073801;28;20235;-86
2021/12/02 02:23:12;;;;;;;0.55;0.32;;;9.80;99.90;;;;;;5073123;28;20229;-86
2021/12/02 02:25:42;;;;;;;7.32;0.40;;;9.90;99.90;;;;;;5077591;28;20244;-86
2021/12/02 02:28:10;;;;;;;0.30;0.30;;;9.90;99.90;;;;;;5093002;28;20252;-86
2021/12/02 02:30:39;;;;;;;0.63;0.63;;;9.80;99.90;;;;;;5086439;28;20197;-87
2021/12/02 02:33:10;;;;;;;0.45;0.45;;;9.90;99.90;;;;;;5077641;28;20288;-87
2021/12/02 02:35:40;;;;;;;0.35;0.35;;;9.80;99.90;;;;;;5089947;28;20272;-87
2021/12/02 02:38:09;;;;;;;0.30;0.28;;;9.80;99.90;;;;;;5074218;28;20312;-87
2021/12/02 02:40:40;;;;;;;0.20;0.20;;;9.80;99.90;;;;;;5091650;28;20200;-87
2021/12/02 02:43:09;;;;;;;0.47;0.47;;;9.80;99.90;;;;;;5091899;28;20202;-87
2021/12/02 02:45:39;;;;;;;0.30;0.30;;;9.80;99.90;;;;;;5076393;28;20304;-87
2021/12/02 02:48:08;;;;;;;0.40;0.40;;;9.70;99.90;;;;;;5091886;28;20225;-87
2021/12/02 02:50:36;;;;;;;0.40;0.40;;;9.70;99.90;;;;;;5072913;28;20253;-87
2021/12/02 02:53:13;;;;;;;0.38;0.38;;;9.70;99.90;;;;;;5074537;28;20209;-87
2021/12/02 02:55:44;;;;;;;0.25;0.25;;;9.70;99.90;;;;;;5087984;28;20250;-87
2021/12/02 02:58:19;;;;;;;0.32;0.32;;;9.70;99.90;;;;;;5075887;28;20252;-86
2021/12/02 03:00:54;;;;;;;0.30;0.30;;;9.60;99.90;;;;;;5086799;28;20224;-87
2021/12/02 03:03:31;;;;;;;0.22;0.22;;;9.70;99.90;;;;;;5090467;28;20204;-87
2021/12/02 03:06:13;;;;;;;0.98;0.65;;;9.70;99.90;;;;;;5073278;28;20217;-87
2021/12/02 03:08:50;;;;;;;0.32;0.32;;;9.70;99.90;;;;;;5082545;28;20303;-86
2021/12/02 03:11:20;;;;;;;0.73;0.50;;;9.80;99.90;;;;;;5092343;28;20261;-87
2021/12/02 03:13:51;;;;;;;0.80;0.60;;;9.80;99.90;;;;;;5077449;28;20205;-86
2021/12/02 03:16:43;;;;;;;0.90;0.63;;;9.70;99.90;;;;;;5073250;28;20205;-86
2021/12/02 03:19:13;;;;;;;0.57;0.57;;;9.60;99.90;;;;;;5084339;28;20201;-86
2021/12/02 03:21:42;;;;;;;0.50;0.50;;;9.70;99.90;;;;;;5092999;28;20224;-86
2021/12/02 03:24:12;;;;;;;0.57;0.57;;;9.60;99.90;;;;;;5084739;28;20292;-85
2021/12/02 03:26:41;;;;;;;0.20;0.20;;;9.60;99.90;;;;;;5072549;28;20221;-86
2021/12/02 03:29:09;;;;;;;0.30;0.30;;;9.60;99.90;;;;;;5089257;28;20223;-86
2021/12/02 03:31:38;;;;;;;0.35;0.35;;;9.60;99.90;;;;;;5086168;28;20205;-86
2021/12/02 03:34:07;;;;;;;0.32;0.32;;;9.60;99.90;;;;;;5073012;28;20201;-86
2021/12/02 03:36:36;;;;;;;0.35;0.35;;;9.50;99.90;;;;;;5090575;28;20279;-86
2021/12/02 03:39:06;;;;;;;0.38;0.38;;;9.50;99.90;;;;;;5090846;28;20303;-86
2021/12/02 03:41:38;;;;;;;0.40;0.40;;;9.50;99.90;;;;;;5092120;28;20200;-86
2021/12/02 03:44:08;;;;;;;0.40;0.40;;;9.60;99.90;;;;;;5080740;28;20265;-86
2021/12/02 03:46:37;;;;;;;0.32;0.32;;;9.50;99.90;;;;;;5072466;28;20227;-86
2021/12/02 03:49:06;;;;;;;0.40;0.40;;;9.60;99.90;;;;;;5072027;28;20204;-86
2021/12/02 03:51:35;;;;;;;0.50;0.32;;;9.50;99.90;;;;;;5072356;28;20209;-87
2021/12/02 03:54:03;;;;;;;0.70;0.70;;;9.50;99.90;;;;;;5086421;28;20204;-87
2021/12/02 03:56:33;;;;;;;0.98;0.60;;;9.50;99.90;;;;;;5092337;28;20229;-86
2021/12/02 03:59:02;;;;;;;0.35;0.35;;;9.50;99.90;;;;;;5089622;28;20200;-86
2021/12/02 04:01:31;;;;;;;0.50;0.50;;;9.50;99.90;;;;;;5074956;28;20288;-86
2021/12/02 04:03:59;;;;;;;0.40;0.40;;;9.50;99.90;;;;;;5072481;28;20201;-86
2021/12/02 04:06:28;;;;;;;0.30;0.30;;;9.50;99.90;;;;;;5073185;28;20248;-86
2021/12/02 04:09:00;;;;;;;0.32;0.32;;;9.60;99.90;;;;;;5080382;28;20212;-87
2021/12/02 04:11:35;;;;;;;0.38;0.38;;;9.50;99.90;;;;;;5092766;28;20222;-86
2021/12/02 04:14:12;;;;;;;0.52;0.52;;;9.50;99.90;;;;;;5090828;28;20295;-87
2021/12/02 04:16:41;;;;;;;0.20;0.20;;;9.50;99.90;;;;;;5073959;28;20224;-86
2021/12/02 04:19:11;;;;;;;0.60;0.60;;;9.50;99.90;;;;;;5075377;28;20201;-86
2021/12/02 04:21:40;;;;;;;0.57;0.57;;;9.50;99.90;;;;;;5089732;28;20239;-86
2021/12/02 04:24:08;;;;;;;0.40;0.40;;;9.50;99.90;;;;;;5091919;28;20254;-86
2021/12/02 04:26:39;;;;;;;0.52;0.52;;;9.50;99.90;;;;;;5092104;28;20303;-86
2021/12/02 04:29:09;;;;;;;0.28;0.28;;;9.40;99.90;;;;;;5080273;28;20205;-86
2021/12/02 04:31:38;;;;;;;0.32;0.32;;;9.40;99.90;;;;;;5087516;28;20208;-86
2021/12/02 04:34:06;;;;;;;0.40;0.40;;;9.40;99.90;;;;;;5081177;28;20233;-86
2021/12/02 04:36:34;;;;;;;0.32;0.32;;;9.40;99.90;;;;;;5078236;28;20197;-86
2021/12/02 04:39:02;;;;;;;2.67;0.50;;;9.40;99.90;;;;;;5081461;28;20211;-86
2021/12/02 04:41:31;;;;;;;0.35;0.35;;;9.40;99.90;;;;;;5076468;28;20275;-86
2021/12/02 04:43:59;;;;;;;0.45;0.45;;;9.40;99.90;;;;;;5090412;28;20324;-86
2021/12/02 04:46:29;;;;;;;0.30;0.30;;;9.40;99.90;;;;;;5081823;28;20294;-86
2021/12/02 04:48:58;;;;;;;0.50;0.50;;;9.40;99.90;;;;;;5072911;28;20205;-86
2021/12/02 04:51:27;;;;;;;0.45;0.45;;;9.40;99.90;;;;;;5072162;28;20209;-86
2021/12/02 04:53:55;;;;;;;0.40;0.40;;;9.40;99.90;;;;;;5084131;28;20207;-86
2021/12/02 04:56:23;;;;;;;0.60;0.60;;;9.40;99.90;;;;;;5074301;28;20236;-86
2021/12/02 04:58:51;;;;;;;1.00;0.77;;;9.40;99.90;;;;;;5087153;28;20301;-86
2021/12/02 05:01:20;;;;;;;1.00;1.00;;;9.40;99.90;;;;;;5079349;28;20279;-87
2021/12/02 05:03:50;;;;;;;0.30;0.30;;;9.40;99.90;;;;;;5091927;28;20201;-87
2021/12/02 05:06:18;;;;;;;0.30;0.30;;;9.40;99.90;;;;;;5081193;28;20288;-86
2021/12/02 05:08:47;;;;;;;0.40;0.40;;;9.40;99.90;;;;;;5077387;28;20289;-86
2021/12/02 05:11:15;;;;;;;13.80;0.77;;;9.40;99.90;;;;;;5071688;28;20296;-86
2021/12/02 05:13:44;;;;;;;0.15;0.15;;;9.40;99.90;;;;;;5074983;28;20197;-86
2021/12/02 05:16:12;;;;;;;0.65;0.65;;;9.40;99.90;;;;;;5085312;28;20256;-85
2021/12/02 05:18:40;;;;;;;0.77;0.55;;;9.40;99.90;;;;;;5078072;28;20246;-85
2021/12/02 05:21:10;;;;;;;0.60;0.60;;;9.40;99.90;;;;;;5085855;28;20256;-85
2021/12/02 05:23:38;;;;;;;1.67;0.77;;;9.30;99.90;;;;;;5079829;28;20283;-85
2021/12/02 05:26:07;;;;;;;0.60;0.60;;;9.30;99.90;;;;;;5073690;28;20201;-85
2021/12/02 05:28:35;;;;;;;0.60;0.60;;;9.30;99.90;;;;;;5083007;28;20221;-85
2021/12/02 05:31:04;;;;;;;0.60;0.60;;;9.30;99.90;;;;;;5075416;28;20196;-86
2021/12/02 05:33:32;;;;;;;0.70;0.70;;;9.30;99.90;;;;;;5071084;28;20225;-86
2021/12/02 05:36:00;;;;;;;2.22;0.70;;;9.30;99.90;;;;;;5079217;28;20208;-86
2021/12/02 05:38:30;;;;;;;0.73;0.73;;;9.30;99.90;;;;;;5085625;28;20247;-86
2021/12/02 05:40:59;;;;;;;0.40;0.38;;;9.30;99.90;;;;;;5074635;28;20297;-86
2021/12/02 05:43:27;;;;;;;0.28;0.28;;;9.30;99.90;;;;;;5094226;28;20224;-86
2021/12/02 05:45:56;;;;;;;0.60;0.52;;;9.30;99.90;;;;;;5094202;28;20295;-86
2021/12/02 05:48:24;;;;;;;0.47;0.47;;;9.30;99.90;;;;;;5094127;28;20216;-85
2021/12/02 05:50:53;;;;;;;0.85;0.85;;;9.30;99.90;;;;;;5093641;28;20200;-84
2021/12/02 05:53:22;;;;;;;0.63;0.63;;;9.30;99.90;;;;;;5093964;28;20296;-85
2021/12/02 05:55:51;;;;;;;0.77;0.77;;;9.30;99.90;;;;;;5094264;28;20205;-85
2021/12/02 05:58:20;;;;;;;1.15;0.80;;;9.30;99.90;;;;;;5079097;28;20292;-85
2021/12/02 06:00:49;;;;;;;0.63;0.63;;;9.20;99.90;;;;;;5077445;28;20249;-85
2021/12/02 06:03:18;;;;;;;0.75;0.63;;;9.20;99.90;;;;;;5078968;28;20196;-86
2021/12/02 06:05:47;;;;;;;0.40;0.40;;;9.20;99.90;;;;;;5094840;28;20200;-85
2021/12/02 06:08:16;;;;;;;0.30;0.30;;;9.20;99.90;;;;;;5093827;28;20233;-86
2021/12/02 06:10:44;;;;;;;0.57;0.57;;;9.20;99.90;;;;;;5083341;28;20237;-85
2021/12/02 06:13:14;;;;;;;0.68;0.68;;;9.20;99.90;;;;;;5075683;28;20276;-85
2021/12/02 06:15:43;;;;;;;0.65;0.65;;;9.10;99.90;;;;;;5074972;28;20205;-85
2021/12/02 06:18:11;;;;;;;0.98;0.60;;;9.20;99.90;;;;;;5078194;28;20221;-85
2021/12/02 06:20:40;;;;;;;0.60;0.60;;;9.10;99.90;;;;;;5074415;28;20204;-85
2021/12/02 06:23:09;;;;;;;0.30;0.30;;;9.10;99.90;;;;;;5091090;28;20287;-86
2021/12/02 06:25:47;;;;;;;0.52;0.52;;;9.20;99.90;;;;;;5093582;28;20228;-85
2021/12/02 06:28:17;;;;;;;0.45;0.45;;;9.10;99.90;;;;;;5094284;28;20322;-86
2021/12/02 06:30:46;;;;;;;1.00;0.70;;;9.10;99.90;;;;;;5083888;28;20276;-86
2021/12/02 06:33:15;;;;;;;0.57;0.57;;;9.10;99.90;;;;;;5086270;28;20421;-86
2021/12/02 06:35:45;;;;;;;1.05;0.95;;;9.10;99.90;;;;;;5074211;28;20213;-86
2021/12/02 06:38:13;;;;;;;0.50;0.50;;;9.10;99.90;;;;;;5083739;28;20227;-84
2021/12/02 06:40:45;;;;;;;0.52;0.50;;;9.00;99.90;;;;;;5091707;28;20220;-87
2021/12/02 06:43:15;;;;;;;1.27;0.60;;;9.00;99.90;;;;;;5085367;28;20204;-86
2021/12/02 06:45:46;;;;;;;0.88;0.88;;;9.00;99.90;;;;;;5094066;28;20208;-86
2021/12/02 06:48:15;;;;;;;2.35;0.60;;;9.00;99.90;;;;;;5076974;28;20236;-86
2021/12/02 06:50:43;;;;;;;1.30;1.20;;;9.00;99.90;;;;;;5073224;28;20295;-86
2021/12/02 06:53:16;;;;;;;3.53;1.30;;;9.00;99.90;;;;;;5073872;28;20244;-86
2021/12/02 06:55:45;;;;;;;1.10;0.90;;;9.00;99.90;;;;;;5073748;28;20193;-86
2021/12/02 06:58:13;;;;;;;0.40;0.40;;;9.00;99.90;;;;;;5073208;28;20255;-86
2021/12/02 07:00:43;;;;;;;0.52;0.52;;;9.00;99.90;;;;;;5072876;28;20217;-86
2021/12/02 07:03:13;;;;;;;1.13;1.00;;;9.00;99.90;;;;;;5092508;28;20287;-86
2021/12/02 07:05:41;;;;;;;0.55;0.55;;;9.00;99.90;;;;;;5093010;28;20205;-86
2021/12/02 07:08:09;;;;;;;0.90;0.90;;;9.00;99.90;;;;;;5093013;28;20248;-86
2021/12/02 07:10:41;;;;;;;1.02;1.00;;;9.00;99.90;;;;;;5092406;28;20300;-86
2021/12/02 07:13:10;;;;;;;0.38;0.38;;;9.00;99.90;;;;;;5093045;28;20258;-87
2021/12/02 07:15:42;;;;;;;0.70;0.70;;;9.00;99.90;;;;;;5093176;28;20232;-86
2021/12/02 07:18:15;;;;;;;1.13;1.13;;;8.90;99.90;;;;;;5093272;28;20319;-86
2021/12/02 07:20:46;;;;;;;1.20;0.82;;;8.90;99.90;;;;;;5092265;28;20208;-86
2021/12/02 07:23:16;;;;;;;1.30;1.20;;;8.90;99.90;;;;;;5092697;28;20201;-86
2021/12/02 07:25:46;;;;;;;0.60;0.60;;;8.90;99.90;;;;;;5093344;28;20212;-86
2021/12/02 07:28:16;;;;;;;0.75;0.75;;;8.90;99.90;;;;;;5092989;28;20369;-86
2021/12/02 07:30:48;;;;;;;0.77;0.77;;;8.90;99.90;;;;;;5091060;28;20223;-86
2021/12/02 07:33:20;;;;;;;3.80;1.13;;;8.90;99.90;;;;;;5093012;28;20277;-86
2021/12/02 07:35:49;;;;;;;1.42;1.00;;;8.90;99.90;;;;;;5093254;28;20201;-87
2021/12/02 07:38:19;;;;;;;1.35;1.13;;;8.90;99.90;;;;;;5091703;28;20281;-85
2021/12/02 07:40:48;;;;;;;0.57;0.57;;;9.00;99.90;;;;;;5092109;28;20204;-84
2021/12/02 07:43:17;;;;;;;1.00;1.00;;;9.00;99.90;;;;;;5093051;28;20212;-84
2021/12/02 07:45:46;;;;;;;1.33;1.17;;;9.00;99.90;;;;;;5092901;28;20226;-85
2021/12/02 07:48:15;;;;;;;1.27;1.17;;;9.00;99.90;;;;;;5092787;28;20236;-85
2021/12/02 07:50:45;;;;;;;1.30;1.20;;;9.00;99.90;;;;;;5092352;28;20216;-85
2021/12/02 07:53:14;;;;;;;1.75;1.15;;;9.00;99.90;;;;;;5082267;28;20209;-84
2021/12/02 07:55:45;;;;;;;1.33;1.25;;;9.00;99.90;;;;;;5071602;28;20197;-89
2021/12/02 07:58:14;;;;;;;1.60;1.20;;;9.00;99.90;;;;;;5079263;28;20248;-84
2021/12/02 08:00:43;;;;;;;1.48;1.38;;;9.00;99.90;;;;;;5090987;28;20208;-85
2021/12/02 08:03:18;;;;;;;1.05;0.80;;;9.00;99.90;;;;;;5087083;28;20224;-84
2021/12/02 08:05:51;;;;;;;1.60;0.95;;;9.10;99.90;;;;;;5088050;28;20207;-82
2021/12/02 08:08:19;;;;;;;0.90;0.90;;;9.10;99.90;;;;;;5076666;28;20265;-82
2021/12/02 08:10:52;;;;;;;1.00;0.90;;;9.10;99.90;;;;;;5090659;28;20217;-82
2021/12/02 08:13:28;;;;;;;0.63;0.63;;;9.10;99.90;;;;;;5086477;28;20193;-82
2021/12/02 08:15:56;;;;;;;0.80;0.80;;;9.10;99.90;;;;;;5073190;28;20216;-83
2021/12/02 08:18:25;;;;;;;2.58;0.98;;;9.10;99.90;;;;;;5075990;28;20336;-84
2021/12/02 08:20:57;;;;;;;0.70;0.70;;;9.20;99.90;;;;;;5079720;28;20204;-83
2021/12/02 08:23:25;;;;;;;1.13;1.02;;;9.10;99.90;;;;;;5092265;28;20208;-85
2021/12/02 08:25:56;;;;;;;0.80;0.80;;;9.20;99.90;;;;;;5090613;28;20253;-86
2021/12/02 08:28:24;;;;;;;0.40;0.40;;;9.20;99.90;;;;;;5082053;28;20217;-86
2021/12/02 08:30:53;;;;;;;0.63;0.63;;;9.20;99.90;;;;;;5071397;28;20288;-86
2021/12/02 08:33:21;;;;;;;0.82;0.82;;;9.10;99.90;;;;;;5092043;28;20204;-86
2021/12/02 08:35:50;;;;;;;1.73;1.20;;;9.20;99.90;;;;;;5083117;28;20284;-87
2021/12/02 08:38:29;;;;;;;3.10;1.33;;;9.20;99.90;;;;;;5090197;28;20226;-86
2021/12/02 08:40:58;;;;;;;0.43;0.40;;;9.20;99.90;;;;;;5091812;28;20200;-86
2021/12/02 08:43:28;;;;;;;1.60;1.20;;;9.20;99.90;;;;;;5086181;28;20254;-87
2021/12/02 08:45:57;;;;;;;0.70;0.70;;;9.20;99.90;;;;;;5071746;28;20274;-88
2021/12/02 08:48:25;;;;;;;1.10;1.10;;;9.20;99.90;;;;;;5072138;28;20221;-87
2021/12/02 08:50:54;;;;;;;1.90;1.00;;;9.30;99.90;;;;;;5091628;28;20200;-88
2021/12/02 08:53:24;;;;;;;1.35;0.93;;;9.30;99.90;;;;;;5090059;28;20204;-90
2021/12/02 08:55:52;;;;;;;0.68;0.68;;;9.30;99.90;;;;;;5091298;28;20200;-86
2021/12/02 08:58:20;;;;;;;1.02;0.93;;;9.20;99.90;;;;;;5091751;28;20255;-85
2021/12/02 09:00:50;;;;;;;1.10;0.95;;;9.20;99.90;;;;;;5091020;28;20265;-84
2021/12/02 09:03:26;;;;;;;0.75;0.75;;;9.20;99.90;;;;;;5091551;28;20215;-84
2021/12/02 09:05:55;;;;;;;0.65;0.65;;;9.10;99.90;;;;;;5091528;28;20211;-83
2021/12/02 09:08:29;;;;;;;0.95;0.93;;;9.10;99.90;;;;;;5091902;28;20256;-83
2021/12/02 09:10:59;;;;;;;1.00;0.98;;;9.10;99.90;;;;;;5091071;28;20225;-83
2021/12/02 09:13:27;;;;;;;1.23;1.00;;;9.10;99.90;;;;;;5085960;28;20208;-82
2021/12/02 09:15:55;;;;;;;1.00;1.00;;;9.10;99.90;;;;;;5095847;28;20208;-85
2021/12/02 09:18:24;;;;;;;0.85;0.85;;;9.20;99.90;;;;;;5094749;28;20219;-85
2021/12/02 09:20:52;;;;;;;0.60;0.60;;;9.20;99.90;;;;;;5095024;28;20242;-85
2021/12/02 09:23:21;;;;;;;1.10;0.65;;;9.10;99.90;;;;;;5095684;28;20209;-85
2021/12/02 09:25:50;;;;;;;0.55;0.55;;;9.10;99.90;;;;;;5094242;28;20201;-85
2021/12/02 09:28:19;;;;;;;0.65;0.65;;;9.10;99.90;;;;;;5077619;28;20304;-84
2021/12/02 09:30:48;;;;;;;0.82;0.82;;;9.20;99.90;;;;;;5081316;28;20226;-86
2021/12/02 09:33:16;;;;;;;2.15;1.95;;;9.20;99.90;;;;;;5094380;28;20204;-85
2021/12/02 09:35:45;;;;;;;1.55;1.27;;;9.20;99.90;;;;;;5095445;28;20205;-85
2021/12/02 09:38:13;;;;;;;2.17;0.90;;;9.20;99.90;;;;;;5078687;28;20251;-86
2021/12/02 09:40:44;;;;;;;1.63;1.17;;;9.10;99.90;;;;;;5086437;28;20194;-85
2021/12/02 09:43:14;;;;;;;1.73;1.08;;;9.10;99.90;;;;;;5090173;28;20271;-85
2021/12/02 09:45:44;;;;;;;0.85;0.85;;;9.00;99.90;;;;;;5088062;28;20205;-85
2021/12/02 09:48:13;;;;;;;0.85;0.85;;;8.90;99.90;;;;;;5079320;28;20245;-85
2021/12/02 09:50:51;;;;;;;0.60;0.60;;;8.80;99.90;;;;;;5073152;28;20280;-85
2021/12/02 09:53:23;;;;;;;1.17;1.08;;;8.70;99.90;;;;;;5082030;28;20283;-85
2021/12/02 09:55:57;;;;;;;0.77;0.77;;;8.70;99.90;;;;;;5092300;28;20197;-85
2021/12/02 09:58:28;;;;;;;0.70;0.70;;;8.60;99.90;;;;;;5075859;28;20316;-85
2021/12/02 10:01:00;;;;;;;1.02;1.02;;;8.60;99.90;;;;;;5084151;28;20280;-85
2021/12/02 10:03:33;;;;;;;0.85;0.85;;;8.70;99.90;;;;;;5091227;28;20211;-85
2021/12/02 10:06:06;;;;;;;0.90;0.90;;;8.70;99.90;;;;;;5093622;28;20264;-85
2021/12/02 10:08:48;;;;;;;1.13;1.10;;;8.60;99.90;;;;;;5073813;28;20221;-85
2021/12/02 10:11:29;;;;;;;15.40;1.50;;;8.60;99.90;;;;;;5073464;28;20259;-85
2021/12/02 10:14:12;;;;;;;0.80;0.80;;;8.60;99.90;;;;;;5073515;28;20304;-85
2021/12/02 10:16:43;;;;;;;0.63;0.63;;;8.60;99.90;;;;;;5074675;28;20221;-85
2021/12/02 10:19:13;;;;;;;2.05;1.20;;;8.60;99.90;;;;;;5073724;28;20203;-85
2021/12/02 10:21:46;;;;;;;0.88;0.88;;;8.70;99.90;;;;;;5085277;28;20223;-85
2021/12/02 10:24:16;;;;;;;1.15;1.05;;;8.70;99.90;;;;;;5073748;28;20208;-86
2021/12/02 10:26:50;;;;;;;1.10;1.00;;;8.70;99.90;;;;;;5087284;28;20198;-85
2021/12/02 10:29:42;;;;;;;1.45;1.35;;;8.60;99.90;;;;;;5078947;28;20269;-86
2021/12/02 10:32:12;;;;;;;1.23;1.15;;;8.60;99.90;;;;;;5094131;28;20228;-85
2021/12/02 10:34:49;;;;;;;1.38;1.23;;;8.60;99.90;;;;;;5076094;28;20198;-86
2021/12/02 10:37:19;;;;;;;1.00;1.00;;;8.60;99.90;;;;;;5090593;28;20250;-85
2021/12/02 10:39:58;;;;;;;1.15;1.15;;;8.40;99.90;;;;;;5092828;28;20204;-85
2021/12/02 10:42:28;;;;;;;1.40;1.30;;;8.30;99.90;;;;;;5086937;28;20303;-84
2021/12/02 10:45:01;;;;;;;1.10;1.10;;;8.20;99.90;;;;;;5086748;28;20204;-82
2021/12/02 10:47:30;;;;;;;2.55;1.83;;;8.20;99.90;;;;;;5093587;28;20291;-88
2021/12/02 10:50:00;;;;;;;2.47;1.67;;;8.20;99.90;;;;;;5079185;28;20300;-87
2021/12/02 10:52:30;;;;;;;1.10;1.10;;;8.10;99.90;;;;;;5073854;28;20284;-88
2021/12/02 10:55:00;;;;;;;2.95;1.45;;;8.10;99.90;;;;;;5073355;28;20205;-87
2021/12/02 10:57:31;;;;;;;1.15;1.10;;;8.20;99.90;;;;;;5079192;28;20228;-88
2021/12/02 11:00:07;;;;;;;1.25;1.15;;;8.10;99.90;;;;;;5085250;28;20249;-88
2021/12/02 11:02:39;;;;;;;1.30;1.20;;;8.20;99.90;;;;;;5073576;28;20215;-87
2021/12/02 11:05:11;;;;;;;1.30;1.20;;;8.20;99.90;;;;;;5082106;28;20211;-87
2021/12/02 11:07:42;;;;;;;1.45;1.35;;;8.20;99.90;;;;;;5093621;28;20228;-88
2021/12/02 11:10:12;;;;;;;1.20;1.20;;;8.20;99.90;;;;;;5091630;28;20247;-87
2021/12/02 11:12:42;;;;;;;1.00;1.00;;;8.20;99.90;;;;;;5073530;28;20201;-87
2021/12/02 11:15:14;;;;;;;1.05;0.95;;;8.20;99.90;;;;;;5073185;28;20205;-87
2021/12/02 11:17:46;;;;;;;1.10;1.10;;;8.20;99.90;;;;;;5081573;28;20281;-87
2021/12/02 11:24:34;;;;;;;1.20;1.10;;;8.20;99.90;;;;;;4967696;28;20231;-89
2021/12/02 11:30:03;;;;;;;1.50;1.40;;;8.10;99.90;;;;;;5676570;22;20233;-87
2021/12/02 11:32:44;;;;;;;1.00;1.00;;;8.10;99.90;;;;;;5069878;28;20209;-89
2021/12/02 11:35:22;;;;;;;1.90;1.67;;;8.10;99.90;;;;;;5071150;28;20197;-90
2021/12/02 11:37:53;;;;;;;1.65;1.55;;;8.10;99.90;;;;;;5073163;28;20217;-90
2021/12/02 11:40:30;;;;;;;1.17;1.10;;;8.10;99.90;;;;;;5072456;28;20201;-90
2021/12/02 11:42:59;;;;;;;1.02;1.00;;;8.10;99.90;;;;;;5072890;28;20291;-90
2021/12/02 11:45:30;;;;;;;1.25;1.17;;;8.10;99.90;;;;;;5072899;28;20201;-91
2021/12/02 11:59:03;;;;;;;1.35;1.25;;;7.90;99.90;;;;;;4990569;28;20254;-93
2021/12/02 12:01:50;;;;;;;1.00;1.00;;;7.90;99.90;;;;;;4993213;28;20291;-91
2021/12/02 12:04:22;;;;;;;1.35;1.25;;;7.90;99.90;;;;;;4974471;28;20196;-89
2021/12/02 12:07:22;;;;;;;1.27;1.17;;;7.90;99.90;;;;;;4987883;28;20234;-91
2021/12/02 12:10:48;;;;;;;0.98;0.88;;;8.00;99.90;;;;;;4991169;28;20210;-91
2021/12/02 12:13:27;;;;;;;1.80;1.17;;;7.90;99.90;;;;;;4971308;28;20226;-91
2021/12/02 12:16:26;;;;;;;1.67;1.48;;;7.90;99.90;;;;;;4972721;28;20295;-90
2021/12/02 12:21:51;;;;;;;2.05;1.33;;;7.90;99.90;;;;;;4985626;28;20214;-89
2021/12/02 12:24:39;;;;;;;2.15;1.60;;;7.90;99.90;;;;;;4992283;28;20195;-89
2021/12/02 12:27:16;;;;;;;1.33;1.23;;;7.90;99.90;;;;;;4992563;28;20223;-89
2021/12/02 12:29:50;;;;;;;1.42;1.33;;;7.90;99.90;;;;;;4993326;28;20227;-88
2021/12/02 12:35:52;;;;;;;1.85;1.30;;;7.90;99.90;;;;;;4977613;28;20207;-88
2021/12/02 12:38:26;;;;;;;0.90;0.90;;;7.90;99.90;;;;;;4988422;28;20224;-88
2021/12/02 12:40:59;;;;;;;1.17;1.17;;;7.90;99.90;;;;;;4992992;28;20230;-89
2021/12/02 12:43:47;;;;;;;1.63;1.38;;;7.90;99.90;;;;;;4993885;28;20290;-89
2021/12/02 12:46:23;;;;;;;1.73;1.38;;;7.90;99.90;;;;;;4984987;28;20210;-91
2021/12/02 12:48:54;;;;;;;2.22;1.38;;;8.00;99.90;;;;;;4996312;28;20234;-89
2021/12/02 12:51:32;;;;;;;5.22;1.27;;;8.00;99.90;;;;;;4996160;28;20219;-89
2021/12/02 12:54:04;;;;;;;1.00;1.00;;;8.00;99.90;;;;;;5002257;28;20217;-89
2021/12/02 12:56:39;;;;;;;1.25;1.15;;;8.00;99.90;;;;;;5003426;28;20201;-89
2021/12/02 12:59:24;;;;;;;1.13;1.13;;;8.10;99.90;;;;;;5007565;28;20199;-90
2021/12/02 13:01:59;;;;;;;1.42;1.33;;;8.00;99.90;;;;;;4995899;28;20203;-90
2021/12/02 13:04:54;;;;;;;4.93;1.27;;;8.00;99.90;;;;;;4997976;28;20204;-90
2021/12/02 13:08:06;;;;;;;1.48;1.20;;;8.10;99.90;;;;;;4999567;28;20215;-91
2021/12/02 13:10:49;;;;;;;1.20;1.10;;;8.10;99.90;;;;;;4995804;28;20200;-83
2021/12/02 13:13:22;;;;;;;0.93;0.93;;;8.10;99.90;;;;;;4993057;28;20200;-85
2021/12/02 13:15:54;;;;;;;0.90;0.90;;;8.00;99.90;;;;;;4996426;28;20262;-82
2021/12/02 13:18:32;;;;;;;0.93;0.93;;;8.00;99.90;;;;;;4995467;28;20227;-81
2021/12/02 13:21:19;;;;;;;1.00;1.00;;;8.10;99.90;;;;;;4995617;28;20207;-82
2021/12/02 13:23:56;;;;;;;1.25;1.15;;;8.10;99.90;;;;;;4995551;28;20195;-82
2021/12/02 13:26:25;;;;;;;1.13;1.00;;;8.10;99.90;;;;;;4996217;28;20218;-82
2021/12/02 13:28:57;;;;;;;1.88;1.27;;;8.10;99.90;;;;;;4994733;28;20262;-82
2021/12/02 13:31:29;;;;;;;1.40;1.30;;;8.00;99.90;;;;;;4995714;28;20231;-82
2021/12/02 13:34:01;;;;;;;1.02;0.73;;;8.00;99.90;;;;;;4995766;28;20208;-81
2021/12/02 13:36:44;;;;;;;0.85;0.85;;;8.00;99.90;;;;;;4986521;28;20291;-82
2021/12/02 13:39:16;;;;;;;0.70;0.70;;;8.00;99.90;;;;;;4993211;28;20234;-81
2021/12/02 13:41:51;;;;;;;0.63;0.63;;;8.00;99.90;;;;;;4995914;28;20211;-81
2021/12/02 13:44:23;;;;;;;0.90;0.88;;;8.00;99.90;;;;;;4995765;28;20207;-82
2021/12/02 13:46:56;;;;;;;1.17;1.05;;;8.00;99.90;;;;;;4995471;28;20216;-82
2021/12/02 13:49:28;;;;;;;1.23;1.13;;;7.90;99.90;;;;;;4994710;28;20278;-84